Time;durP1;ratioP1;P1;durP2;ratioP2;P2;SDS_P1;SDS_P2;PMS_P1;PMS_P2;Temp;Humidity;BMP_temperature;BMP_pressure;BME280_temperature;BME280_humidity;BME280_pressure;Samples;Min_cycle;Max_cycle;Signal;HPM_P1;HPM_P2
2021/01/29 00:02:56;;;;;;;9.48;7.30;;;0.30;99.90;;;;;;6941984;28;20969;-64
2021/01/29 00:06:17;;;;;;;11.38;7.20;;;0.20;99.90;;;;;;6957214;28;20734;-64
2021/01/29 00:09:39;;;;;;;9.05;6.95;;;0.20;99.90;;;;;;6958297;28;20395;-65
2021/01/29 00:13:01;;;;;;;9.85;7.50;;;0.20;99.90;;;;;;6931761;28;20425;-64
2021/01/29 00:16:22;;;;;;;9.70;7.60;;;0.20;99.90;;;;;;6932335;28;20405;-64
2021/01/29 00:19:43;;;;;;;9.50;7.10;;;0.20;99.90;;;;;;6960502;28;20434;-65
2021/01/29 00:23:04;;;;;;;10.80;7.03;;;0.00;99.90;;;;;;6933511;28;20396;-64
2021/01/29 00:26:25;;;;;;;9.20;7.10;;;0.10;99.90;;;;;;6946906;28;20729;-64
2021/01/29 00:29:46;;;;;;;10.75;7.03;;;0.10;99.90;;;;;;6979693;28;20909;-64
2021/01/29 00:33:09;;;;;;;10.65;7.10;;;-0.10;99.90;;;;;;6940844;28;20421;-64
2021/01/29 00:36:30;;;;;;;11.35;7.75;;;-0.30;99.90;;;;;;6937205;28;20402;-65
2021/01/29 00:39:51;;;;;;;11.10;7.47;;;-0.20;99.90;;;;;;6964565;28;20494;-64
2021/01/29 00:43:12;;;;;;;10.13;7.20;;;0.00;99.90;;;;;;6947713;28;20407;-64
2021/01/29 00:46:33;;;;;;;10.17;7.30;;;0.00;99.90;;;;;;6934013;28;20528;-64
2021/01/29 00:49:54;;;;;;;10.30;7.30;;;0.00;99.90;;;;;;6931220;28;20962;-65
2021/01/29 00:53:15;;;;;;;10.02;7.05;;;0.10;99.90;;;;;;6931412;28;20539;-62
2021/01/29 00:56:36;;;;;;;10.25;7.05;;;-0.10;99.90;;;;;;6961398;28;20395;-65
2021/01/29 01:00:09;;;;;;;8.80;7.35;;;0.00;99.90;;;;;;6963322;28;20522;-65
2021/01/29 01:03:39;;;;;;;10.80;7.85;;;0.20;99.90;;;;;;6946182;28;20747;-64
2021/01/29 01:07:00;;;;;;;11.55;8.20;;;0.30;99.90;;;;;;6957879;28;20408;-63
2021/01/29 01:10:44;;;;;;;10.50;7.60;;;0.20;99.90;;;;;;6945440;28;20454;-64
2021/01/29 01:14:23;;;;;;;10.93;7.30;;;0.20;99.90;;;;;;6970449;28;20399;-64
2021/01/29 01:18:08;;;;;;;9.77;7.53;;;0.10;99.90;;;;;;6969917;28;20379;-65
2021/01/29 01:21:51;;;;;;;9.10;7.80;;;0.10;99.90;;;;;;6941977;28;20808;-65
2021/01/29 01:25:29;;;;;;;10.80;8.20;;;0.10;99.90;;;;;;6945084;28;20415;-66
2021/01/29 01:28:52;;;;;;;9.98;7.97;;;0.10;99.90;;;;;;6962878;28;20505;-66
2021/01/29 01:32:17;;;;;;;8.87;7.70;;;0.10;99.90;;;;;;6939784;28;20429;-65
2021/01/29 01:35:56;;;;;;;10.40;8.40;;;0.20;99.90;;;;;;6959093;28;20486;-65
2021/01/29 01:39:27;;;;;;;11.00;7.80;;;0.10;99.90;;;;;;6962542;28;20392;-65
2021/01/29 01:42:49;;;;;;;10.50;8.00;;;0.20;99.90;;;;;;6972171;28;20412;-65
2021/01/29 01:46:13;;;;;;;10.23;8.00;;;0.20;99.90;;;;;;6936896;28;20409;-65
2021/01/29 01:49:46;;;;;;;10.50;8.37;;;0.30;99.90;;;;;;6953116;28;20413;-65
2021/01/29 01:53:38;;;;;;;9.60;7.70;;;0.30;99.90;;;;;;6936625;28;20423;-65
2021/01/29 01:57:00;;;;;;;10.95;8.32;;;0.50;99.90;;;;;;6949722;28;20434;-65
2021/01/29 02:00:28;;;;;;;12.57;8.73;;;0.50;99.90;;;;;;6982495;28;20400;-65
2021/01/29 02:04:34;;;;;;;10.55;8.35;;;0.40;99.90;;;;;;6883341;28;20423;-65
2021/01/29 02:08:16;;;;;;;9.60;8.35;;;0.30;99.90;;;;;;6922644;28;20386;-65
2021/01/29 02:11:39;;;;;;;11.10;8.40;;;0.40;99.90;;;;;;6959195;28;20417;-65
2021/01/29 02:15:19;;;;;;;10.03;8.03;;;0.30;99.90;;;;;;6945620;28;20453;-65
2021/01/29 02:19:07;;;;;;;12.25;8.30;;;0.40;99.90;;;;;;6943007;28;20392;-65
2021/01/29 02:22:47;;;;;;;11.93;8.60;;;0.30;99.90;;;;;;6929226;28;20395;-65
2021/01/29 02:27:06;;;;;;;12.25;8.50;;;0.30;99.90;;;;;;6947514;28;20400;-65
2021/01/29 02:30:36;;;;;;;11.98;8.70;;;0.30;99.90;;;;;;6932242;28;20911;-64
2021/01/29 02:34:03;;;;;;;10.38;8.50;;;0.20;99.90;;;;;;6936681;28;20407;-65
2021/01/29 02:38:04;;;;;;;12.88;8.50;;;0.20;99.90;;;;;;6950556;28;20745;-65
2021/01/29 02:41:46;;;;;;;10.98;8.00;;;0.20;99.90;;;;;;6951151;28;20762;-65
2021/01/29 02:45:22;;;;;;;11.90;8.00;;;0.20;99.90;;;;;;6952613;28;20409;-65
2021/01/29 02:49:21;;;;;;;9.00;7.70;;;0.20;99.90;;;;;;6960809;28;21091;-66
2021/01/29 02:53:48;;;;;;;10.55;7.60;;;0.30;99.90;;;;;;6961019;28;20411;-66
2021/01/29 02:57:54;;;;;;;11.70;7.90;;;0.20;99.90;;;;;;6961627;28;20554;-65
2021/01/29 03:01:56;;;;;;;10.63;8.38;;;0.20;99.90;;;;;;6954861;28;20900;-64
2021/01/29 03:05:56;;;;;;;10.40;8.15;;;0.20;99.90;;;;;;6951894;28;20737;-63
2021/01/29 03:09:25;;;;;;;12.70;8.70;;;0.30;99.90;;;;;;6939065;28;20896;-64
2021/01/29 03:13:28;;;;;;;11.52;8.50;;;0.20;99.90;;;;;;6957897;28;20414;-64
2021/01/29 03:17:16;;;;;;;11.13;8.20;;;0.20;99.90;;;;;;6956832;28;20399;-65
2021/01/29 03:21:09;;;;;;;12.30;8.20;;;0.20;99.90;;;;;;6960584;28;20478;-66
2021/01/29 03:25:05;;;;;;;10.70;7.75;;;0.20;99.90;;;;;;6945059;28;20920;-64
2021/01/29 03:28:52;;;;;;;10.85;7.65;;;0.20;99.90;;;;;;6948635;28;20393;-65
2021/01/29 03:32:33;;;;;;;8.63;7.10;;;0.10;99.90;;;;;;6957767;28;20498;-66
2021/01/29 03:36:17;;;;;;;10.43;6.90;;;0.20;99.90;;;;;;6949733;28;20401;-64
2021/01/29 03:39:56;;;;;;;9.63;6.95;;;0.10;99.90;;;;;;6951512;28;20395;-66
2021/01/29 03:43:49;;;;;;;9.47;6.53;;;0.10;99.90;;;;;;6961168;28;20733;-66
2021/01/29 03:47:55;;;;;;;9.10;6.50;;;0.10;99.90;;;;;;6920205;28;20874;-65
2021/01/29 03:52:27;;;;;;;8.90;6.00;;;0.30;99.90;;;;;;6952297;28;20415;-64
2021/01/29 03:56:44;;;;;;;9.05;5.78;;;0.20;99.90;;;;;;6898310;28;20427;-65
2021/01/29 04:00:51;;;;;;;7.88;5.50;;;0.20;99.90;;;;;;6965354;28;20384;-65
2021/01/29 04:04:35;;;;;;;8.85;5.30;;;0.20;99.90;;;;;;6965602;28;20407;-64
2021/01/29 04:08:22;;;;;;;8.75;5.70;;;0.20;99.90;;;;;;6965810;28;20494;-65
2021/01/29 04:12:04;;;;;;;7.72;5.13;;;0.20;99.90;;;;;;6959290;28;20411;-66
2021/01/29 04:15:55;;;;;;;7.68;5.10;;;0.20;99.90;;;;;;6954263;28;20502;-64
2021/01/29 04:19:20;;;;;;;6.25;4.90;;;0.20;99.90;;;;;;6988636;28;20438;-64
2021/01/29 04:22:45;;;;;;;7.20;5.10;;;0.20;99.90;;;;;;6934857;28;20401;-66
2021/01/29 04:26:20;;;;;;;6.45;4.85;;;0.30;99.90;;;;;;6946568;28;20411;-66
2021/01/29 04:30:03;;;;;;;7.03;4.90;;;0.30;99.90;;;;;;6945250;28;20391;-67
2021/01/29 04:33:32;;;;;;;7.00;4.70;;;0.30;99.90;;;;;;6946960;28;20445;-66
2021/01/29 04:36:57;;;;;;;8.33;4.93;;;0.30;99.90;;;;;;6947271;28;20396;-67
2021/01/29 04:40:53;;;;;;;6.90;4.68;;;0.30;99.90;;;;;;6945545;28;20408;-66
2021/01/29 04:44:23;;;;;;;9.02;4.80;;;0.20;99.90;;;;;;6918532;28;20399;-64
2021/01/29 04:47:47;;;;;;;6.70;4.80;;;0.30;99.90;;;;;;6947038;28;20757;-67
2021/01/29 04:52:05;;;;;;;6.78;4.60;;;0.20;99.90;;;;;;6939687;28;20431;-66
2021/01/29 04:55:44;;;;;;;6.90;4.88;;;0.20;99.90;;;;;;6806317;28;20439;-67
2021/01/29 04:59:24;;;;;;;7.47;4.80;;;0.20;99.90;;;;;;6866381;28;20427;-65
2021/01/29 05:03:18;;;;;;;6.68;4.65;;;0.20;99.90;;;;;;6957562;28;20415;-65
2021/01/29 05:07:27;;;;;;;8.23;4.63;;;0.20;99.90;;;;;;6953856;28;20399;-64
2021/01/29 05:11:31;;;;;;;7.57;4.50;;;0.20;99.90;;;;;;6967464;28;20413;-64
2021/01/29 05:15:07;;;;;;;8.27;5.15;;;0.30;99.90;;;;;;6951659;28;20403;-64
2021/01/29 05:18:53;;;;;;;8.48;5.38;;;0.30;99.90;;;;;;6950805;28;20409;-64
2021/01/29 05:22:47;;;;;;;8.70;5.10;;;0.20;99.90;;;;;;6953909;28;20488;-64
2021/01/29 05:26:31;;;;;;;7.25;4.80;;;0.20;99.90;;;;;;6943010;28;20423;-64
2021/01/29 05:29:55;;;;;;;7.85;5.20;;;0.30;99.90;;;;;;6948638;28;20952;-64
2021/01/29 05:33:24;;;;;;;10.13;6.00;;;0.20;99.90;;;;;;6949722;28;20411;-64
2021/01/29 05:36:54;;;;;;;8.18;6.43;;;0.20;99.90;;;;;;6961886;28;20388;-66
2021/01/29 05:40:18;;;;;;;9.05;6.95;;;0.10;99.90;;;;;;6939149;28;20401;-63
2021/01/29 05:44:07;;;;;;;11.02;7.25;;;0.20;99.90;;;;;;6935597;28;20899;-64
2021/01/29 05:47:55;;;;;;;10.98;6.93;;;0.20;99.90;;;;;;6954755;28;20390;-64
2021/01/29 05:51:44;;;;;;;11.10;7.50;;;0.20;99.90;;;;;;6956505;28;20418;-64
2021/01/29 05:55:28;;;;;;;11.23;6.70;;;0.00;99.90;;;;;;6950463;28;20408;-63
2021/01/29 05:59:24;;;;;;;10.40;6.20;;;0.10;99.90;;;;;;6935332;28;20395;-63
2021/01/29 06:03:19;;;;;;;8.82;6.05;;;0.10;99.90;;;;;;6875028;28;20746;-64
2021/01/29 06:06:51;;;;;;;11.43;5.80;;;-0.10;99.90;;;;;;6943903;28;20913;-64
2021/01/29 06:10:47;;;;;;;9.02;5.45;;;0.00;99.90;;;;;;6959749;28;20390;-65
2021/01/29 06:14:27;;;;;;;8.38;5.50;;;0.00;99.90;;;;;;6905897;28;20395;-65
2021/01/29 06:18:04;;;;;;;7.80;5.20;;;0.10;99.90;;;;;;6960734;28;20452;-63
2021/01/29 06:21:40;;;;;;;8.73;4.78;;;0.10;99.90;;;;;;6950883;28;20384;-65
2021/01/29 06:25:48;;;;;;;7.88;4.70;;;0.10;99.90;;;;;;6944803;28;20407;-66
2021/01/29 06:29:21;;;;;;;6.67;4.80;;;0.10;99.90;;;;;;6830070;28;20416;-64
2021/01/29 06:32:51;;;;;;;7.55;4.53;;;0.10;99.90;;;;;;6932925;28;20414;-65
2021/01/29 06:36:58;;;;;;;7.60;4.20;;;0.10;99.90;;;;;;6933977;28;20493;-67
2021/01/29 06:40:34;;;;;;;7.40;4.30;;;0.10;99.90;;;;;;6896095;28;20431;-67
2021/01/29 06:44:18;;;;;;;7.63;4.15;;;0.00;99.90;;;;;;6951776;28;20457;-67
2021/01/29 06:47:57;;;;;;;6.90;4.18;;;0.00;99.90;;;;;;6938373;28;20418;-66
2021/01/29 06:51:45;;;;;;;6.22;4.20;;;0.00;99.90;;;;;;6925328;28;20441;-66
2021/01/29 06:55:14;;;;;;;7.03;4.80;;;0.10;99.90;;;;;;6941640;28;20415;-67
2021/01/29 06:59:04;;;;;;;6.78;4.20;;;0.20;99.90;;;;;;6939447;28;20405;-66
2021/01/29 07:02:53;;;;;;;6.60;4.50;;;0.20;99.90;;;;;;6950293;28;20435;-65
2021/01/29 07:06:33;;;;;;;6.83;4.30;;;0.20;99.90;;;;;;6965746;28;20767;-67
2021/01/29 07:10:15;;;;;;;7.40;4.43;;;0.30;99.90;;;;;;6953445;28;20403;-65
2021/01/29 07:14:02;;;;;;;5.40;4.00;;;0.20;99.90;;;;;;6939733;28;20895;-66
2021/01/29 07:17:38;;;;;;;5.65;4.00;;;0.10;99.90;;;;;;6965883;28;20471;-66
2021/01/29 07:21:26;;;;;;;6.75;3.70;;;0.10;99.90;;;;;;6962642;28;20399;-64
2021/01/29 07:25:02;;;;;;;5.28;3.55;;;0.30;99.90;;;;;;6950112;28;20411;-63
2021/01/29 07:28:33;;;;;;;5.60;3.35;;;0.20;99.90;;;;;;6945917;28;20732;-63
2021/01/29 07:32:01;;;;;;;6.25;3.35;;;0.30;99.90;;;;;;6963559;28;20439;-63
2021/01/29 07:35:28;;;;;;;5.13;3.13;;;0.30;99.90;;;;;;6965396;28;20387;-65
2021/01/29 07:39:04;;;;;;;4.80;2.80;;;0.50;99.90;;;;;;6984286;28;21102;-65
2021/01/29 07:42:40;;;;;;;4.72;3.10;;;0.60;99.90;;;;;;6972244;28;20397;-65
2021/01/29 07:46:24;;;;;;;4.28;3.00;;;0.50;99.90;;;;;;6964227;28;20400;-63
2021/01/29 07:50:22;;;;;;;4.55;3.10;;;0.50;99.90;;;;;;6956216;28;20400;-64
2021/01/29 07:54:17;;;;;;;4.50;3.00;;;0.60;99.90;;;;;;6958279;28;20510;-66
2021/01/29 07:57:57;;;;;;;6.15;3.22;;;0.60;99.90;;;;;;6962324;28;20391;-67
2021/01/29 08:01:48;;;;;;;5.80;3.50;;;0.50;99.90;;;;;;6969623;28;20830;-67
2021/01/29 08:05:38;;;;;;;6.20;3.35;;;0.60;99.90;;;;;;6956423;28;20388;-67
2021/01/29 08:09:15;;;;;;;6.00;3.60;;;0.60;99.90;;;;;;6960049;28;20479;-64
2021/01/29 08:12:50;;;;;;;5.22;3.70;;;0.60;99.90;;;;;;6947023;28;20434;-65
2021/01/29 08:16:59;;;;;;;6.67;3.90;;;0.70;99.90;;;;;;6964915;28;20471;-64
2021/01/29 08:20:38;;;;;;;6.40;3.60;;;0.70;99.90;;;;;;6846153;28;20744;-62
2021/01/29 08:24:24;;;;;;;6.35;3.53;;;0.70;99.90;;;;;;6947135;28;20399;-64
2021/01/29 08:28:19;;;;;;;5.15;3.70;;;0.40;99.90;;;;;;6944902;28;20486;-66
2021/01/29 08:31:55;;;;;;;6.22;3.90;;;0.40;99.90;;;;;;6944852;28;20441;-65
2021/01/29 08:36:27;;;;;;;5.13;3.72;;;0.40;99.90;;;;;;6958999;28;20779;-65
2021/01/29 08:40:13;;;;;;;6.00;3.60;;;0.50;99.90;;;;;;6912741;28;20879;-65
2021/01/29 08:43:57;;;;;;;6.03;3.85;;;0.30;99.90;;;;;;6950109;28;20408;-65
2021/01/29 08:47:21;;;;;;;5.70;3.60;;;0.40;99.90;;;;;;6979915;28;20414;-65
2021/01/29 08:50:55;;;;;;;6.10;3.47;;;0.60;99.90;;;;;;6953073;28;20850;-64
2021/01/29 08:54:35;;;;;;;6.22;3.97;;;0.60;99.90;;;;;;6951525;28;20915;-65
2021/01/29 08:58:11;;;;;;;5.50;3.70;;;0.60;99.90;;;;;;6961087;28;20415;-64
2021/01/29 09:01:46;;;;;;;4.95;3.55;;;0.60;99.90;;;;;;6960307;28;20408;-66
2021/01/29 09:05:17;;;;;;;5.70;3.60;;;0.70;99.90;;;;;;6944924;28;20902;-66
2021/01/29 09:08:38;;;;;;;6.13;3.70;;;0.70;99.90;;;;;;6944323;28;20888;-66
2021/01/29 09:12:03;;;;;;;6.50;3.72;;;0.70;99.90;;;;;;6940241;28;20418;-65
2021/01/29 09:15:55;;;;;;;5.55;3.65;;;0.80;99.90;;;;;;6963641;28;20407;-65
2021/01/29 09:19:19;;;;;;;4.80;3.35;;;0.90;99.90;;;;;;6937181;28;20481;-65
2021/01/29 09:22:53;;;;;;;5.50;3.60;;;0.80;99.90;;;;;;6951198;28;20403;-65
2021/01/29 09:26:20;;;;;;;6.97;3.63;;;0.90;99.90;;;;;;6942379;28;20418;-66
2021/01/29 09:29:54;;;;;;;5.50;3.40;;;0.90;99.90;;;;;;6949868;28;20398;-65
2021/01/29 09:33:16;;;;;;;6.68;3.67;;;0.80;99.90;;;;;;6949247;28;20862;-65
2021/01/29 09:36:49;;;;;;;5.50;3.60;;;0.80;99.90;;;;;;6943023;28;20415;-66
2021/01/29 09:40:16;;;;;;;6.77;3.60;;;0.90;99.90;;;;;;6943773;28;20799;-64
2021/01/29 09:44:19;;;;;;;5.50;3.50;;;1.10;99.90;;;;;;6960513;28;20875;-66
2021/01/29 09:47:44;;;;;;;6.38;3.75;;;1.30;99.90;;;;;;6899624;28;20414;-67
2021/01/29 09:51:36;;;;;;;6.03;3.60;;;1.20;99.90;;;;;;6957700;28;20420;-65
2021/01/29 09:55:19;;;;;;;5.03;3.50;;;1.30;99.90;;;;;;6934260;28;20516;-66
2021/01/29 09:58:58;;;;;;;5.70;3.50;;;1.40;99.90;;;;;;6947032;28;20391;-67
2021/01/29 10:02:42;;;;;;;5.15;3.60;;;1.40;99.90;;;;;;6946160;28;20498;-65
2021/01/29 10:06:18;;;;;;;5.72;3.50;;;1.30;99.90;;;;;;6958796;28;20903;-65
2021/01/29 10:09:47;;;;;;;6.17;3.20;;;1.10;99.90;;;;;;6957904;28;20504;-65
2021/01/29 10:13:28;;;;;;;5.32;3.58;;;1.10;99.90;;;;;;6971464;28;20423;-65
2021/01/29 10:17:16;;;;;;;5.25;3.30;;;1.10;99.90;;;;;;6941529;28;20760;-66
2021/01/29 10:20:38;;;;;;;5.03;3.30;;;1.20;99.90;;;;;;6945108;28;20392;-65
2021/01/29 10:24:08;;;;;;;5.75;3.50;;;1.30;99.90;;;;;;6937060;28;20481;-65
2021/01/29 10:27:44;;;;;;;5.05;3.30;;;1.40;99.90;;;;;;6958876;28;20431;-65
2021/01/29 10:31:10;;;;;;;5.10;3.70;;;1.50;99.90;;;;;;6940099;28;20471;-65
2021/01/29 10:35:00;;;;;;;6.72;3.83;;;1.70;99.90;;;;;;6927137;28;20401;-65
2021/01/29 10:38:25;;;;;;;5.88;3.75;;;1.70;99.90;;;;;;6942528;28;20400;-67
2021/01/29 10:42:18;;;;;;;6.40;3.50;;;1.80;99.90;;;;;;6949652;28;20456;-65
2021/01/29 10:46:04;;;;;;;5.07;3.40;;;1.90;99.90;;;;;;6926863;28;20935;-67
2021/01/29 10:49:43;;;;;;;5.70;3.50;;;1.90;99.90;;;;;;6952099;28;20495;-65
2021/01/29 10:53:16;;;;;;;5.13;3.35;;;1.90;99.90;;;;;;6974710;28;20405;-64
2021/01/29 10:56:40;;;;;;;4.88;3.50;;;2.10;99.90;;;;;;6964409;28;20382;-65
2021/01/29 11:00:29;;;;;;;6.70;3.60;;;2.00;99.90;;;;;;6962756;28;20406;-65
2021/01/29 11:04:04;;;;;;;6.25;3.35;;;2.00;99.90;;;;;;6938748;28;20406;-66
2021/01/29 11:07:31;;;;;;;5.60;3.90;;;2.00;99.90;;;;;;6933520;28;20405;-65
2021/01/29 11:11:01;;;;;;;5.40;3.60;;;2.10;99.90;;;;;;6936049;28;20967;-65
2021/01/29 11:14:45;;;;;;;6.10;3.70;;;2.10;99.90;;;;;;6935378;28;20492;-66
2021/01/29 11:18:09;;;;;;;6.00;3.80;;;2.20;99.90;;;;;;6921888;28;20409;-68
2021/01/29 11:21:54;;;;;;;4.83;3.40;;;2.40;99.90;;;;;;6947430;28;20390;-65
2021/01/29 11:25:45;;;;;;;5.30;3.85;;;2.40;99.90;;;;;;6963134;28;20408;-66
2021/01/29 11:29:38;;;;;;;5.13;3.30;;;2.30;99.90;;;;;;6957027;28;20912;-65
2021/01/29 11:33:04;;;;;;;5.70;3.80;;;2.40;99.90;;;;;;6926731;28;20434;-64
2021/01/29 11:36:42;;;;;;;4.90;3.55;;;2.30;99.90;;;;;;6952098;28;20906;-65
2021/01/29 11:40:21;;;;;;;6.00;4.00;;;2.10;99.90;;;;;;6928738;28;20387;-65
2021/01/29 11:43:56;;;;;;;5.43;3.40;;;2.10;99.90;;;;;;6954905;28;20424;-66
2021/01/29 11:47:38;;;;;;;5.97;3.90;;;2.00;99.90;;;;;;6962603;28;20423;-65
2021/01/29 11:51:10;;;;;;;7.05;3.75;;;1.90;99.90;;;;;;6943005;28;20520;-65
2021/01/29 11:54:51;;;;;;;6.30;3.80;;;1.90;99.90;;;;;;6933209;28;20446;-65
2021/01/29 11:58:21;;;;;;;5.97;3.80;;;1.80;99.90;;;;;;6937159;28;20400;-65
2021/01/29 12:02:15;;;;;;;5.13;3.80;;;1.80;99.90;;;;;;6967305;28;20921;-66
2021/01/29 12:05:43;;;;;;;6.28;3.70;;;1.80;99.90;;;;;;6923734;28;20547;-65
2021/01/29 12:09:38;;;;;;;5.78;3.70;;;1.80;99.90;;;;;;6951657;28;20416;-65
2021/01/29 12:13:16;;;;;;;6.57;3.53;;;1.80;99.90;;;;;;6951972;28;20416;-65
2021/01/29 12:16:37;;;;;;;7.07;3.55;;;1.90;99.90;;;;;;6953610;28;20472;-65
2021/01/29 12:20:09;;;;;;;5.27;3.40;;;1.90;99.90;;;;;;6953050;28;20399;-63
2021/01/29 12:23:46;;;;;;;4.85;3.28;;;1.90;99.90;;;;;;6967487;28;20652;-64
2021/01/29 12:27:24;;;;;;;5.80;3.40;;;1.90;99.90;;;;;;6953344;28;20827;-63
2021/01/29 12:31:25;;;;;;;6.65;3.75;;;1.70;99.90;;;;;;6961815;28;20410;-62
2021/01/29 12:35:10;;;;;;;7.67;4.87;;;1.80;99.90;;;;;;6960699;28;20384;-63
2021/01/29 12:38:45;;;;;;;5.95;3.90;;;1.80;99.90;;;;;;6921314;28;20465;-64
2021/01/29 12:42:25;;;;;;;5.32;4.00;;;1.80;99.90;;;;;;6970860;28;20418;-62
2021/01/29 12:46:03;;;;;;;6.05;3.63;;;1.80;99.90;;;;;;6945712;28;20479;-63
2021/01/29 12:49:46;;;;;;;5.15;3.50;;;1.70;99.90;;;;;;6959298;28;20404;-63
2021/01/29 12:53:19;;;;;;;6.47;3.92;;;1.60;99.90;;;;;;6964764;28;20416;-62
2021/01/29 12:56:40;;;;;;;6.80;3.75;;;1.60;99.90;;;;;;6946110;28;20521;-63
2021/01/29 13:00:12;;;;;;;6.20;4.00;;;1.50;99.90;;;;;;6961882;28;20392;-64
2021/01/29 13:03:40;;;;;;;5.85;3.90;;;1.50;99.90;;;;;;6971747;28;20484;-61
2021/01/29 13:07:07;;;;;;;7.70;4.07;;;1.40;99.90;;;;;;6952142;28;20902;-64
2021/01/29 13:10:43;;;;;;;7.10;4.50;;;1.40;99.90;;;;;;6948428;28;20399;-62
2021/01/29 13:14:36;;;;;;;7.90;4.20;;;1.40;99.90;;;;;;6932626;28;20412;-64
2021/01/29 13:18:15;;;;;;;7.68;3.90;;;1.30;99.90;;;;;;6948218;28;20403;-65
2021/01/29 13:21:58;;;;;;;7.97;4.78;;;1.30;99.90;;;;;;6941884;28;20435;-63
2021/01/29 13:25:29;;;;;;;6.40;3.95;;;1.40;99.90;;;;;;6939600;28;20400;-62
2021/01/29 13:29:15;;;;;;;5.80;3.90;;;1.30;99.90;;;;;;6950009;28;21031;-64
2021/01/29 13:32:37;;;;;;;5.72;3.70;;;1.30;99.90;;;;;;6970511;28;20433;-64
2021/01/29 13:36:09;;;;;;;5.65;3.50;;;1.30;99.90;;;;;;6956391;28;20479;-62
2021/01/29 13:39:37;;;;;;;6.65;3.65;;;1.30;99.90;;;;;;6941321;28;20442;-64
2021/01/29 13:43:10;;;;;;;5.60;3.60;;;1.10;99.90;;;;;;6961102;28;20425;-66
2021/01/29 13:46:34;;;;;;;5.22;3.50;;;1.10;99.90;;;;;;6960587;28;20926;-66
2021/01/29 13:49:56;;;;;;;5.40;3.78;;;1.10;99.90;;;;;;6959867;28;20411;-63
2021/01/29 13:53:34;;;;;;;5.63;3.70;;;1.10;99.90;;;;;;6961407;28;20462;-64
2021/01/29 13:56:56;;;;;;;5.50;3.20;;;1.00;99.90;;;;;;6954057;28;20398;-65
2021/01/29 14:00:22;;;;;;;5.03;3.85;;;0.90;99.90;;;;;;6934767;28;20900;-63
2021/01/29 14:03:50;;;;;;;7.10;3.90;;;1.00;99.90;;;;;;6930902;28;20405;-64
2021/01/29 14:07:11;;;;;;;6.68;4.10;;;0.90;99.90;;;;;;6952815;28;20463;-63
2021/01/29 14:10:36;;;;;;;6.60;4.47;;;0.90;99.90;;;;;;6938167;28;20407;-65
2021/01/29 14:14:23;;;;;;;5.75;4.15;;;0.80;99.90;;;;;;6944783;28;20411;-65
2021/01/29 14:17:55;;;;;;;5.80;3.83;;;0.80;99.90;;;;;;6913359;28;20431;-66
2021/01/29 14:21:29;;;;;;;5.30;3.60;;;0.70;99.90;;;;;;6988926;28;20888;-66
2021/01/29 14:25:02;;;;;;;4.95;3.38;;;0.80;99.90;;;;;;6959907;28;21050;-66
2021/01/29 14:28:52;;;;;;;5.47;3.63;;;0.70;99.90;;;;;;6941017;28;20405;-66
2021/01/29 14:32:13;;;;;;;5.10;3.38;;;0.80;99.90;;;;;;6951917;28;20499;-64
2021/01/29 14:36:03;;;;;;;5.18;3.20;;;0.80;99.90;;;;;;6960109;28;20919;-64
2021/01/29 14:39:27;;;;;;;4.80;3.20;;;0.80;99.90;;;;;;6941476;28;20443;-66
2021/01/29 14:43:25;;;;;;;4.47;3.00;;;0.80;99.90;;;;;;6943107;28;20415;-65
2021/01/29 14:46:55;;;;;;;4.80;3.10;;;0.80;99.90;;;;;;6944936;28;20435;-66
2021/01/29 14:50:44;;;;;;;6.23;3.10;;;0.70;99.90;;;;;;6950661;28;20403;-66
2021/01/29 14:54:11;;;;;;;4.68;3.03;;;0.60;99.90;;;;;;6963270;28;20434;-64
2021/01/29 14:57:43;;;;;;;4.65;3.00;;;0.50;99.90;;;;;;6979098;28;20407;-63
2021/01/29 15:01:11;;;;;;;5.10;3.20;;;0.50;99.90;;;;;;6934467;28;20441;-64
2021/01/29 15:04:35;;;;;;;5.30;2.90;;;0.50;99.90;;;;;;6960213;28;20446;-65
2021/01/29 15:07:58;;;;;;;6.03;2.92;;;0.40;99.90;;;;;;6957035;28;20391;-65
2021/01/29 15:11:23;;;;;;;6.03;3.20;;;0.30;99.90;;;;;;6942147;28;20411;-63
2021/01/29 15:14:51;;;;;;;4.38;3.05;;;0.20;99.90;;;;;;6947652;28;20391;-62
2021/01/29 15:18:18;;;;;;;4.70;3.00;;;0.10;99.90;;;;;;6925847;28;20400;-64
2021/01/29 15:21:39;;;;;;;6.35;2.90;;;0.00;99.90;;;;;;6933892;28;20449;-65
2021/01/29 15:25:26;;;;;;;5.68;3.30;;;0.10;99.90;;;;;;6957924;28;20420;-65
2021/01/29 15:28:52;;;;;;;5.10;3.30;;;0.30;99.90;;;;;;6956117;28;20415;-65
2021/01/29 15:32:24;;;;;;;5.40;3.60;;;0.20;99.90;;;;;;6958495;28;20454;-65
2021/01/29 15:35:46;;;;;;;6.00;3.80;;;0.20;99.90;;;;;;6950373;28;20400;-65
2021/01/29 15:39:32;;;;;;;5.13;3.50;;;0.20;99.90;;;;;;6963876;28;20407;-65
2021/01/29 15:42:55;;;;;;;5.78;3.90;;;0.20;99.90;;;;;;6952771;28;20392;-65
2021/01/29 15:46:36;;;;;;;7.20;4.30;;;0.30;99.90;;;;;;6941630;28;20462;-66
2021/01/29 15:49:56;;;;;;;6.82;4.40;;;0.30;99.90;;;;;;6952223;28;20402;-65
2021/01/29 15:53:45;;;;;;;7.50;4.30;;;0.30;99.90;;;;;;6962392;28;20494;-64
2021/01/29 15:57:37;;;;;;;6.90;4.50;;;0.10;99.90;;;;;;6983539;28;20400;-63
2021/01/29 16:00:58;;;;;;;7.80;4.93;;;0.00;99.90;;;;;;6963288;28;20450;-63
2021/01/29 16:04:22;;;;;;;7.93;4.30;;;0.10;99.90;;;;;;6950122;28;20465;-64
2021/01/29 16:07:58;;;;;;;6.70;4.23;;;0.00;99.90;;;;;;6951748;28;20428;-64
2021/01/29 16:11:28;;;;;;;6.97;4.10;;;0.00;99.90;;;;;;6945473;28;20419;-62
2021/01/29 16:14:57;;;;;;;5.90;4.20;;;0.10;99.90;;;;;;6947878;28;20424;-63
2021/01/29 16:18:22;;;;;;;5.95;4.00;;;0.00;99.90;;;;;;6948392;28;20475;-63
2021/01/29 16:21:43;;;;;;;5.38;3.55;;;-0.10;99.90;;;;;;6952318;28;20729;-64
2021/01/29 16:25:04;;;;;;;5.88;3.40;;;0.00;99.90;;;;;;6945540;28;20480;-64
2021/01/29 16:28:26;;;;;;;5.22;3.50;;;-0.10;99.90;;;;;;6987169;28;20414;-64
2021/01/29 16:31:48;;;;;;;4.93;3.22;;;-0.10;99.90;;;;;;6980562;28;20454;-66
2021/01/29 16:35:35;;;;;;;4.53;3.10;;;-0.30;99.90;;;;;;6948219;28;20953;-63
2021/01/29 16:38:56;;;;;;;5.88;3.50;;;-0.20;99.90;;;;;;6937793;28;20902;-65
2021/01/29 16:42:17;;;;;;;5.32;3.80;;;-0.30;99.90;;;;;;6950129;28;20422;-64
2021/01/29 16:45:48;;;;;;;7.05;4.00;;;-0.30;99.90;;;;;;6955311;28;20485;-64
2021/01/29 16:49:35;;;;;;;6.47;4.18;;;-0.30;99.90;;;;;;6957914;28;20407;-66
2021/01/29 16:53:07;;;;;;;6.25;4.10;;;-0.30;99.90;;;;;;6945406;28;20434;-65
2021/01/29 16:56:28;;;;;;;5.18;3.60;;;-0.30;99.90;;;;;;6981180;28;20399;-65
2021/01/29 16:59:51;;;;;;;5.28;3.58;;;-0.40;99.90;;;;;;6961668;28;20934;-65
2021/01/29 17:03:32;;;;;;;5.55;3.40;;;-0.30;99.90;;;;;;6961641;28;20413;-64
2021/01/29 17:06:55;;;;;;;5.57;3.20;;;-0.30;99.90;;;;;;6952599;28;20412;-64
2021/01/29 17:10:27;;;;;;;5.15;3.30;;;-0.30;99.90;;;;;;6940519;28;20938;-63
2021/01/29 17:13:49;;;;;;;5.90;3.35;;;-0.30;99.90;;;;;;6942475;28;20428;-64
2021/01/29 17:17:14;;;;;;;6.82;3.50;;;-0.40;99.90;;;;;;6938080;28;20433;-64
2021/01/29 17:20:36;;;;;;;6.60;3.70;;;-0.50;99.90;;;;;;6946642;28;20651;-63
2021/01/29 17:24:08;;;;;;;5.82;3.97;;;-0.50;99.90;;;;;;6937720;28;20431;-64
2021/01/29 17:27:30;;;;;;;6.95;4.30;;;-0.50;99.90;;;;;;6961319;28;20442;-64
2021/01/29 17:30:51;;;;;;;6.90;4.40;;;-0.50;99.90;;;;;;6941723;28;20493;-64
2021/01/29 17:34:28;;;;;;;7.00;4.55;;;-0.60;99.90;;;;;;6943973;28;20806;-64
2021/01/29 17:37:49;;;;;;;6.57;4.20;;;-0.60;99.90;;;;;;6947867;28;20422;-65
2021/01/29 17:41:24;;;;;;;7.07;4.40;;;-0.50;99.90;;;;;;6951584;28;20417;-62
2021/01/29 17:44:54;;;;;;;7.18;4.50;;;-0.60;99.90;;;;;;6963281;28;20409;-65
2021/01/29 17:48:15;;;;;;;6.65;4.28;;;-0.60;99.90;;;;;;6949000;28;20831;-65
2021/01/29 17:51:37;;;;;;;7.47;4.70;;;-0.70;99.90;;;;;;6963121;28;20443;-65
2021/01/29 17:54:59;;;;;;;7.82;4.90;;;-0.60;99.90;;;;;;6964462;28;20795;-65
2021/01/29 17:58:20;;;;;;;7.50;5.00;;;-0.50;99.90;;;;;;6964670;28;20773;-64
2021/01/29 18:01:49;;;;;;;8.00;5.60;;;-0.50;99.90;;;;;;6948342;28;20940;-65
2021/01/29 18:05:17;;;;;;;9.80;6.10;;;-0.50;99.90;;;;;;6985300;28;20394;-66
2021/01/29 18:08:51;;;;;;;10.52;6.88;;;-0.50;99.90;;;;;;6961894;28;20427;-66
2021/01/29 18:12:21;;;;;;;10.18;6.97;;;-0.50;99.90;;;;;;6936160;28;21055;-66
2021/01/29 18:16:03;;;;;;;9.20;6.47;;;-0.50;99.90;;;;;;6943463;28;20408;-64
2021/01/29 18:19:24;;;;;;;9.52;5.40;;;-0.40;99.90;;;;;;6960013;28;20418;-65
2021/01/29 18:22:45;;;;;;;8.35;5.90;;;-0.30;99.90;;;;;;6956871;28;20488;-65
2021/01/29 18:26:07;;;;;;;8.63;5.82;;;-0.40;99.90;;;;;;6936170;28;20407;-65
2021/01/29 18:29:28;;;;;;;8.43;5.95;;;-0.40;99.90;;;;;;6947771;28;20411;-65
2021/01/29 18:32:51;;;;;;;7.13;5.20;;;-0.30;99.90;;;;;;7005513;28;20412;-65
2021/01/29 18:36:16;;;;;;;8.03;5.90;;;-0.40;99.90;;;;;;6990897;28;20477;-65
2021/01/29 18:39:38;;;;;;;7.78;5.53;;;-0.30;99.90;;;;;;6980151;28;20426;-65
2021/01/29 18:43:00;;;;;;;8.20;5.63;;;-0.30;99.90;;;;;;6998348;28;20406;-65
2021/01/29 18:46:21;;;;;;;9.20;5.70;;;-0.20;99.90;;;;;;6975807;28;20408;-64
2021/01/29 18:49:42;;;;;;;9.07;5.90;;;-0.20;99.90;;;;;;6963455;28;20390;-64
2021/01/29 18:53:04;;;;;;;8.38;5.35;;;-0.10;99.90;;;;;;6963759;28;20441;-64
2021/01/29 18:56:25;;;;;;;9.33;5.07;;;-0.10;99.90;;;;;;6948054;28;20497;-65